sensor_id;sensor_type;location;lat;lon;timestamp;temperature;humidity
63202;DHT22;49296;48.188;11.566;2024-03-23T00:55:26;13.48;59.64
63202;DHT22;49296;48.188;11.566;2024-03-23T00:57:53;13.51;59.52
63202;DHT22;49296;48.188;11.566;2024-03-23T01:00:19;13.51;59.22
63202;DHT22;49296;48.188;11.566;2024-03-23T01:02:46;13.48;59.36
63202;DHT22;49296;48.188;11.566;2024-03-23T01:05:12;13.48;59.34
63202;DHT22;49296;48.188;11.566;2024-03-23T01:07:39;13.48;59.26
63202;DHT22;49296;48.188;11.566;2024-03-23T01:10:07;13.51;59.15
63202;DHT22;49296;48.188;11.566;2024-03-23T01:12:34;13.49;59.44
63202;DHT22;49296;48.188;11.566;2024-03-23T01:15:00;13.52;59.31
63202;DHT22;49296;48.188;11.566;2024-03-23T01:17:26;13.51;59.24
63202;DHT22;49296;48.188;11.566;2024-03-23T01:19:52;13.58;59.12
63202;DHT22;49296;48.188;11.566;2024-03-23T01:22:19;13.56;59.16
63202;DHT22;49296;48.188;11.566;2024-03-23T01:24:45;13.53;59.22
63202;DHT22;49296;48.188;11.566;2024-03-23T01:27:14;13.53;59.20
63202;DHT22;49296;48.188;11.566;2024-03-23T01:29:40;13.52;59.19
63202;DHT22;49296;48.188;11.566;2024-03-23T01:32:07;13.46;59.29
63202;DHT22;49296;48.188;11.566;2024-03-23T01:34:33;13.42;59.48
63202;DHT22;49296;48.188;11.566;2024-03-23T01:37:00;13.31;59.75
63202;DHT22;49296;48.188;11.566;2024-03-23T01:39:26;13.29;59.76
63202;DHT22;49296;48.188;11.566;2024-03-23T01:41:53;13.32;59.83
63202;DHT22;49296;48.188;11.566;2024-03-23T01:44:20;13.41;59.59
63202;DHT22;49296;48.188;11.566;2024-03-23T01:46:47;13.42;59.32
63202;DHT22;49296;48.188;11.566;2024-03-23T01:49:14;13.39;59.38
63202;DHT22;49296;48.188;11.566;2024-03-23T01:51:41;13.46;59.41
63202;DHT22;49296;48.188;11.566;2024-03-23T01:54:07;13.36;59.73
63202;DHT22;49296;48.188;11.566;2024-03-23T01:56:34;13.36;59.66
63202;DHT22;49296;48.188;11.566;2024-03-23T01:59:00;13.38;59.71
63202;DHT22;49296;48.188;11.566;2024-03-23T02:01:29;13.42;59.65
63202;DHT22;49296;48.188;11.566;2024-03-23T02:03:55;13.36;59.90
63202;DHT22;49296;48.188;11.566;2024-03-23T02:06:22;13.31;60.14
63202;DHT22;49296;48.188;11.566;2024-03-23T02:08:49;13.29;60.15
63202;DHT22;49296;48.188;11.566;2024-03-23T02:11:16;13.28;60.33
63202;DHT22;49296;48.188;11.566;2024-03-23T02:13:42;13.31;60.27
63202;DHT22;49296;48.188;11.566;2024-03-23T02:16:09;13.22;60.47
63202;DHT22;49296;48.188;11.566;2024-03-23T02:18:37;13.14;60.69
63202;DHT22;49296;48.188;11.566;2024-03-23T02:21:04;13.17;60.87
63202;DHT22;49296;48.188;11.566;2024-03-23T02:23:31;13.14;60.94
63202;DHT22;49296;48.188;11.566;2024-03-23T02:25:58;13.08;61.05
63202;DHT22;49296;48.188;11.566;2024-03-23T02:28:24;13.11;61.22
63202;DHT22;49296;48.188;11.566;2024-03-23T02:30:52;13.07;61.48
63202;DHT22;49296;48.188;11.566;2024-03-23T02:33:18;13.00;61.62
63202;DHT22;49296;48.188;11.566;2024-03-23T02:35:45;12.97;61.80
63202;DHT22;49296;48.188;11.566;2024-03-23T02:38:12;12.96;61.87
63202;DHT22;49296;48.188;11.566;2024-03-23T02:40:40;13.00;61.96
63202;DHT22;49296;48.188;11.566;2024-03-23T02:43:06;12.99;61.90
63202;DHT22;49296;48.188;11.566;2024-03-23T02:45:33;12.97;62.01
63202;DHT22;49296;48.188;11.566;2024-03-23T02:47:59;12.94;62.14
63202;DHT22;49296;48.188;11.566;2024-03-23T02:50:26;12.94;62.13
63202;DHT22;49296;48.188;11.566;2024-03-23T02:52:51;12.86;62.34
63202;DHT22;49296;48.188;11.566;2024-03-23T02:55:18;12.93;62.39
63202;DHT22;49296;48.188;11.566;2024-03-23T02:57:46;12.89;62.56
63202;DHT22;49296;48.188;11.566;2024-03-23T03:00:13;12.83;62.72
63202;DHT22;49296;48.188;11.566;2024-03-23T03:02:39;12.86;62.88
63202;DHT22;49296;48.188;11.566;2024-03-23T03:05:07;12.82;63.03
63202;DHT22;49296;48.188;11.566;2024-03-23T03:07:34;12.90;62.81
63202;DHT22;49296;48.188;11.566;2024-03-23T03:10:04;12.89;62.97
63202;DHT22;49296;48.188;11.566;2024-03-23T03:12:32;12.91;63.02
63202;DHT22;49296;48.188;11.566;2024-03-23T03:15:00;12.87;63.09
63202;DHT22;49296;48.188;11.566;2024-03-23T03:17:26;12.89;63.12
63202;DHT22;49296;48.188;11.566;2024-03-23T03:19:53;12.86;63.29
63202;DHT22;49296;48.188;11.566;2024-03-23T03:22:21;12.75;63.51
63202;DHT22;49296;48.188;11.566;2024-03-23T03:24:48;12.73;63.78
63202;DHT22;49296;48.188;11.566;2024-03-23T03:27:14;12.69;64.01
63202;DHT22;49296;48.188;11.566;2024-03-23T03:29:42;12.69;64.04
63202;DHT22;49296;48.188;11.566;2024-03-23T03:32:10;12.49;64.74
63202;DHT22;49296;48.188;11.566;2024-03-23T03:34:37;12.44;65.05
63202;DHT22;49296;48.188;11.566;2024-03-23T03:37:03;12.42;65.26
63202;DHT22;49296;48.188;11.566;2024-03-23T03:39:31;12.45;65.28
63202;DHT22;49296;48.188;11.566;2024-03-23T03:41:57;12.45;65.40
63202;DHT22;49296;48.188;11.566;2024-03-23T03:44:26;12.39;65.49
63202;DHT22;49296;48.188;11.566;2024-03-23T03:46:52;12.42;65.59
63202;DHT22;49296;48.188;11.566;2024-03-23T03:49:20;12.42;65.47
63202;DHT22;49296;48.188;11.566;2024-03-23T03:51:46;12.25;66.05
63202;DHT22;49296;48.188;11.566;2024-03-23T03:54:13;12.25;66.16
63202;DHT22;49296;48.188;11.566;2024-03-23T03:56:39;12.21;66.24
63202;DHT22;49296;48.188;11.566;2024-03-23T03:59:06;12.24;66.19
63202;DHT22;49296;48.188;11.566;2024-03-23T04:01:32;12.21;66.16
63202;DHT22;49296;48.188;11.566;2024-03-23T04:03:59;12.25;66.20
63202;DHT22;49296;48.188;11.566;2024-03-23T04:06:26;12.24;66.13
63202;DHT22;49296;48.188;11.566;2024-03-23T04:08:54;12.22;66.19
63202;DHT22;49296;48.188;11.566;2024-03-23T04:11:19;12.14;66.46
63202;DHT22;49296;48.188;11.566;2024-03-23T04:13:46;12.17;66.31
63202;DHT22;49296;48.188;11.566;2024-03-23T04:16:16;12.08;66.52
63202;DHT22;49296;48.188;11.566;2024-03-23T04:18:50;12.18;66.11
63202;DHT22;49296;48.188;11.566;2024-03-23T04:21:16;12.21;66.16
63202;DHT22;49296;48.188;11.566;2024-03-23T04:23:44;12.27;65.83
63202;DHT22;49296;48.188;11.566;2024-03-23T04:26:10;12.22;65.86
63202;DHT22;49296;48.188;11.566;2024-03-23T04:28:38;12.28;65.64
63202;DHT22;49296;48.188;11.566;2024-03-23T04:31:04;12.24;65.61
63202;DHT22;49296;48.188;11.566;2024-03-23T04:33:31;12.20;65.76
63202;DHT22;49296;48.188;11.566;2024-03-23T04:35:57;12.20;65.63
63202;DHT22;49296;48.188;11.566;2024-03-23T04:38:23;12.17;65.78
63202;DHT22;49296;48.188;11.566;2024-03-23T04:40:55;12.21;65.65
63202;DHT22;49296;48.188;11.566;2024-03-23T04:43:22;12.22;65.53
63202;DHT22;49296;48.188;11.566;2024-03-23T04:45:49;12.29;65.27
63202;DHT22;49296;48.188;11.566;2024-03-23T04:48:19;12.27;65.31
63202;DHT22;49296;48.188;11.566;2024-03-23T04:50:46;12.32;64.97
63202;DHT22;49296;48.188;11.566;2024-03-23T04:53:12;12.37;64.91
63202;DHT22;49296;48.188;11.566;2024-03-23T04:55:40;12.38;64.71
63202;DHT22;49296;48.188;11.566;2024-03-23T04:58:08;12.44;64.50
63202;DHT22;49296;48.188;11.566;2024-03-23T05:00:34;12.46;64.43
63202;DHT22;49296;48.188;11.566;2024-03-23T05:03:01;12.48;64.28
63202;DHT22;49296;48.188;11.566;2024-03-23T05:05:27;12.53;64.24
63202;DHT22;49296;48.188;11.566;2024-03-23T05:07:54;12.56;63.76
63202;DHT22;49296;48.188;11.566;2024-03-23T05:10:21;12.53;63.68
63202;DHT22;49296;48.188;11.566;2024-03-23T05:12:47;12.45;63.76
63202;DHT22;49296;48.188;11.566;2024-03-23T05:15:16;12.46;63.51
63202;DHT22;49296;48.188;11.566;2024-03-23T05:17:41;12.45;63.50
63202;DHT22;49296;48.188;11.566;2024-03-23T05:20:09;12.46;63.32
63202;DHT22;49296;48.188;11.566;2024-03-23T05:22:35;12.44;63.47
63202;DHT22;49296;48.188;11.566;2024-03-23T05:25:02;12.42;63.28
63202;DHT22;49296;48.188;11.566;2024-03-23T05:27:30;12.42;63.42
63202;DHT22;49296;48.188;11.566;2024-03-23T05:29:58;12.44;63.49
63202;DHT22;49296;48.188;11.566;2024-03-23T05:32:25;12.49;63.22
63202;DHT22;49296;48.188;11.566;2024-03-23T05:34:53;12.46;63.29
63202;DHT22;49296;48.188;11.566;2024-03-23T05:37:21;12.57;62.80
63202;DHT22;49296;48.188;11.566;2024-03-23T05:39:48;12.65;62.70
63202;DHT22;49296;48.188;11.566;2024-03-23T05:42:15;12.66;62.80
63202;DHT22;49296;48.188;11.566;2024-03-23T05:44:43;12.73;62.45
63202;DHT22;49296;48.188;11.566;2024-03-23T05:47:09;12.80;62.36
63202;DHT22;49296;48.188;11.566;2024-03-23T05:49:39;12.77;62.15
63202;DHT22;49296;48.188;11.566;2024-03-23T05:52:07;12.82;62.38
63202;DHT22;49296;48.188;11.566;2024-03-23T05:54:34;12.79;62.23
63202;DHT22;49296;48.188;11.566;2024-03-23T05:57:00;12.77;62.49
63202;DHT22;49296;48.188;11.566;2024-03-23T05:59:27;12.80;62.49
63202;DHT22;49296;48.188;11.566;2024-03-23T06:01:53;12.87;62.43
63202;DHT22;49296;48.188;11.566;2024-03-23T06:04:20;12.89;62.08
63202;DHT22;49296;48.188;11.566;2024-03-23T06:06:48;12.96;62.37
63202;DHT22;49296;48.188;11.566;2024-03-23T06:09:15;13.03;61.99
63202;DHT22;49296;48.188;11.566;2024-03-23T06:11:41;13.11;61.75
63202;DHT22;49296;48.188;11.566;2024-03-23T06:14:08;13.10;61.91
63202;DHT22;49296;48.188;11.566;2024-03-23T06:16:34;13.18;61.56
63202;DHT22;49296;48.188;11.566;2024-03-23T06:19:01;13.22;61.75
63202;DHT22;49296;48.188;11.566;2024-03-23T06:21:29;13.22;61.79
63202;DHT22;49296;48.188;11.566;2024-03-23T06:23:57;13.25;62.06
63202;DHT22;49296;48.188;11.566;2024-03-23T06:26:23;13.31;61.81
63202;DHT22;49296;48.188;11.566;2024-03-23T06:28:50;13.35;61.73
63202;DHT22;49296;48.188;11.566;2024-03-23T06:31:16;13.41;61.27
63202;DHT22;49296;48.188;11.566;2024-03-23T06:33:43;13.46;61.20
63202;DHT22;49296;48.188;11.566;2024-03-23T06:36:10;13.52;60.90
63202;DHT22;49296;48.188;11.566;2024-03-23T06:38:37;13.60;60.59
63202;DHT22;49296;48.188;11.566;2024-03-23T06:41:05;13.65;60.31
63202;DHT22;49296;48.188;11.566;2024-03-23T06:43:32;13.71;60.08
63202;DHT22;49296;48.188;11.566;2024-03-23T06:45:58;13.80;59.80
63202;DHT22;49296;48.188;11.566;2024-03-23T06:48:25;13.86;59.76
63202;DHT22;49296;48.188;11.566;2024-03-23T06:50:55;13.93;59.55
63202;DHT22;49296;48.188;11.566;2024-03-23T06:53:22;13.98;59.33
63202;DHT22;49296;48.188;11.566;2024-03-23T06:55:50;14.08;59.57
63202;DHT22;49296;48.188;11.566;2024-03-23T06:58:20;14.18;59.49
63202;DHT22;49296;48.188;11.566;2024-03-23T07:00:46;14.25;59.65
63202;DHT22;49296;48.188;11.566;2024-03-23T07:03:13;14.38;59.70
63202;DHT22;49296;48.188;11.566;2024-03-23T07:05:39;14.46;59.53
63202;DHT22;49296;48.188;11.566;2024-03-23T07:08:07;14.49;59.54
63202;DHT22;49296;48.188;11.566;2024-03-23T07:10:33;14.60;59.44
63202;DHT22;49296;48.188;11.566;2024-03-23T07:13:01;14.67;59.24
63202;DHT22;49296;48.188;11.566;2024-03-23T07:15:28;14.73;59.24
63202;DHT22;49296;48.188;11.566;2024-03-23T07:17:55;14.74;59.36
63202;DHT22;49296;48.188;11.566;2024-03-23T07:20:21;14.70;59.95
63202;DHT22;49296;48.188;11.566;2024-03-23T07:22:47;14.69;60.12
63202;DHT22;49296;48.188;11.566;2024-03-23T07:25:13;14.69;60.21
63202;DHT22;49296;48.188;11.566;2024-03-23T07:27:40;14.63;60.59
63202;DHT22;49296;48.188;11.566;2024-03-23T07:30:07;14.62;60.81
63202;DHT22;49296;48.188;11.566;2024-03-23T07:32:36;14.55;61.17
63202;DHT22;49296;48.188;11.566;2024-03-23T07:35:03;14.42;61.64
63202;DHT22;49296;48.188;11.566;2024-03-23T07:37:30;14.43;62.03
63202;DHT22;49296;48.188;11.566;2024-03-23T07:39:56;14.36;64.31
63202;DHT22;49296;48.188;11.566;2024-03-23T07:42:25;14.01;70.49
63202;DHT22;49296;48.188;11.566;2024-03-23T07:44:52;13.29;74.66
63202;DHT22;49296;48.188;11.566;2024-03-23T07:47:20;13.01;75.07
63202;DHT22;49296;48.188;11.566;2024-03-23T07:49:47;12.79;74.91
63202;DHT22;49296;48.188;11.566;2024-03-23T07:52:14;12.66;76.13
63202;DHT22;49296;48.188;11.566;2024-03-23T07:54:40;12.55;77.07
63202;DHT22;49296;48.188;11.566;2024-03-23T07:57:07;12.29;77.92
63202;DHT22;49296;48.188;11.566;2024-03-23T07:59:33;12.21;79.22
63202;DHT22;49296;48.188;11.566;2024-03-23T08:02:00;12.07;80.29
63202;DHT22;49296;48.188;11.566;2024-03-23T08:04:27;11.83;81.27
63202;DHT22;49296;48.188;11.566;2024-03-23T08:06:55;11.80;81.78
63202;DHT22;49296;48.188;11.566;2024-03-23T08:09:21;11.66;82.65
63202;DHT22;49296;48.188;11.566;2024-03-23T08:11:48;11.65;82.80
63202;DHT22;49296;48.188;11.566;2024-03-23T08:14:14;11.65;83.42
63202;DHT22;49296;48.188;11.566;2024-03-23T08:16:41;11.54;83.46
63202;DHT22;49296;48.188;11.566;2024-03-23T08:19:07;11.46;83.91
63202;DHT22;49296;48.188;11.566;2024-03-23T08:21:34;11.41;84.59
63202;DHT22;49296;48.188;11.566;2024-03-23T08:24:02;11.28;85.58
63202;DHT22;49296;48.188;11.566;2024-03-23T08:26:29;10.68;86.05
63202;DHT22;49296;48.188;11.566;2024-03-23T08:28:55;10.20;87.60
63202;DHT22;49296;48.188;11.566;2024-03-23T08:31:22;9.94;88.65
63202;DHT22;49296;48.188;11.566;2024-03-23T08:33:48;10.07;89.21
63202;DHT22;49296;48.188;11.566;2024-03-23T08:36:15;9.92;88.33
63202;DHT22;49296;48.188;11.566;2024-03-23T08:38:42;9.69;88.69
63202;DHT22;49296;48.188;11.566;2024-03-23T08:41:10;9.63;88.95
63202;DHT22;49296;48.188;11.566;2024-03-23T08:43:37;9.73;88.96
63202;DHT22;49296;48.188;11.566;2024-03-23T08:46:05;9.73;88.93
63202;DHT22;49296;48.188;11.566;2024-03-23T08:48:31;9.90;89.75
63202;DHT22;49296;48.188;11.566;2024-03-23T08:51:00;9.73;88.66
63202;DHT22;49296;48.188;11.566;2024-03-23T08:53:27;9.66;89.02
63202;DHT22;49296;48.188;11.566;2024-03-23T08:55:54;9.66;89.10
63202;DHT22;49296;48.188;11.566;2024-03-23T08:58:23;9.63;88.93
63202;DHT22;49296;48.188;11.566;2024-03-23T09:00:50;9.58;88.81
63202;DHT22;49296;48.188;11.566;2024-03-23T09:03:16;9.59;88.86
63202;DHT22;49296;48.188;11.566;2024-03-23T09:05:44;9.56;88.76
63202;DHT22;49296;48.188;11.566;2024-03-23T09:08:09;9.55;89.31
63202;DHT22;49296;48.188;11.566;2024-03-23T09:10:39;9.61;89.13
63202;DHT22;49296;48.188;11.566;2024-03-23T09:13:05;9.63;89.13
63202;DHT22;49296;48.188;11.566;2024-03-23T09:15:34;9.66;88.90
63202;DHT22;49296;48.188;11.566;2024-03-23T09:18:00;9.65;89.30
63202;DHT22;49296;48.188;11.566;2024-03-23T09:20:27;9.56;89.52
63202;DHT22;49296;48.188;11.566;2024-03-23T09:22:53;9.62;89.55
63202;DHT22;49296;48.188;11.566;2024-03-23T09:25:20;9.62;89.32
63202;DHT22;49296;48.188;11.566;2024-03-23T09:27:46;9.51;89.54
63202;DHT22;49296;48.188;11.566;2024-03-23T09:30:13;9.47;89.48
63202;DHT22;49296;48.188;11.566;2024-03-23T09:32:42;9.44;89.46
63202;DHT22;49296;48.188;11.566;2024-03-23T09:35:10;9.13;88.89
63202;DHT22;49296;48.188;11.566;2024-03-23T09:37:36;8.93;89.33
63202;DHT22;49296;48.188;11.566;2024-03-23T09:40:05;8.83;88.91
63202;DHT22;49296;48.188;11.566;2024-03-23T09:42:33;8.99;88.18
63202;DHT22;49296;48.188;11.566;2024-03-23T09:45:00;8.97;87.33
63202;DHT22;49296;48.188;11.566;2024-03-23T09:47:27;8.97;87.40
63202;DHT22;49296;48.188;11.566;2024-03-23T09:49:56;9.03;86.55
63202;DHT22;49296;48.188;11.566;2024-03-23T09:52:22;8.99;86.39
63202;DHT22;49296;48.188;11.566;2024-03-23T09:54:48;8.92;87.04
63202;DHT22;49296;48.188;11.566;2024-03-23T09:57:14;8.97;86.86
63202;DHT22;49296;48.188;11.566;2024-03-23T09:59:41;8.93;86.05
63202;DHT22;49296;48.188;11.566;2024-03-23T10:02:07;8.82;85.87
63202;DHT22;49296;48.188;11.566;2024-03-23T10:04:36;8.79;85.46
63202;DHT22;49296;48.188;11.566;2024-03-23T10:07:11;8.61;86.08
63202;DHT22;49296;48.188;11.566;2024-03-23T10:09:38;8.45;85.85
63202;DHT22;49296;48.188;11.566;2024-03-23T10:12:09;8.26;85.86
63202;DHT22;49296;48.188;11.566;2024-03-23T10:14:36;8.03;85.80
63202;DHT22;49296;48.188;11.566;2024-03-23T10:17:13;7.97;87.42
63202;DHT22;49296;48.188;11.566;2024-03-23T10:19:41;7.88;87.51
63202;DHT22;49296;48.188;11.566;2024-03-23T10:22:09;7.85;87.46
63202;DHT22;49296;48.188;11.566;2024-03-23T10:24:37;7.88;86.99
63202;DHT22;49296;48.188;11.566;2024-03-23T10:27:03;7.85;87.56
63202;DHT22;49296;48.188;11.566;2024-03-23T10:29:30;7.86;87.96
63202;DHT22;49296;48.188;11.566;2024-03-23T10:32:08;8.05;87.80
63202;DHT22;49296;48.188;11.566;2024-03-23T10:34:35;8.10;87.72
63202;DHT22;49296;48.188;11.566;2024-03-23T10:37:02;8.30;87.77
63202;DHT22;49296;48.188;11.566;2024-03-23T10:39:32;8.36;87.98
63202;DHT22;49296;48.188;11.566;2024-03-23T10:42:02;8.44;88.08
63202;DHT22;49296;48.188;11.566;2024-03-23T10:44:29;8.48;88.10
63202;DHT22;49296;48.188;11.566;2024-03-23T10:46:57;8.57;88.28
63202;DHT22;49296;48.188;11.566;2024-03-23T10:49:27;8.71;88.47
63202;DHT22;49296;48.188;11.566;2024-03-23T10:51:56;8.55;88.22
63202;DHT22;49296;48.188;11.566;2024-03-23T10:54:24;8.86;88.39
63202;DHT22;49296;48.188;11.566;2024-03-23T10:56:53;8.83;86.24
63202;DHT22;49296;48.188;11.566;2024-03-23T10:59:25;8.82;84.52
63202;DHT22;49296;48.188;11.566;2024-03-23T11:01:55;8.73;83.75
63202;DHT22;49296;48.188;11.566;2024-03-23T11:04:32;8.72;84.19
63202;DHT22;49296;48.188;11.566;2024-03-23T11:06:59;8.45;83.87
63202;DHT22;49296;48.188;11.566;2024-03-23T11:09:43;8.50;84.24
63202;DHT22;49296;48.188;11.566;2024-03-23T11:12:27;8.45;85.37
63202;DHT22;49296;48.188;11.566;2024-03-23T11:14:59;8.58;85.67
63202;DHT22;49296;48.188;11.566;2024-03-23T11:17:26;8.68;84.65
63202;DHT22;49296;48.188;11.566;2024-03-23T11:19:54;8.61;84.70
63202;DHT22;49296;48.188;11.566;2024-03-23T11:22:41;8.59;84.63
63202;DHT22;49296;48.188;11.566;2024-03-23T11:25:15;8.75;84.53
63202;DHT22;49296;48.188;11.566;2024-03-23T11:27:42;8.75;83.10
63202;DHT22;49296;48.188;11.566;2024-03-23T11:30:21;8.78;82.58
63202;DHT22;49296;48.188;11.566;2024-03-23T11:32:48;8.92;83.05
63202;DHT22;49296;48.188;11.566;2024-03-23T11:35:28;9.04;79.57
63202;DHT22;49296;48.188;11.566;2024-03-23T11:38:04;9.04;78.83
63202;DHT22;49296;48.188;11.566;2024-03-23T11:40:32;9.04;77.73
63202;DHT22;49296;48.188;11.566;2024-03-23T11:43:00;8.97;76.76
63202;DHT22;49296;48.188;11.566;2024-03-23T11:45:34;9.02;77.76
63202;DHT22;49296;48.188;11.566;2024-03-23T11:48:07;9.16;77.15
63202;DHT22;49296;48.188;11.566;2024-03-23T11:50:37;9.17;76.60
63202;DHT22;49296;48.188;11.566;2024-03-23T11:53:07;9.17;77.38
63202;DHT22;49296;48.188;11.566;2024-03-23T11:55:47;9.16;76.65
63202;DHT22;49296;48.188;11.566;2024-03-23T11:58:14;9.17;76.35
63202;DHT22;49296;48.188;11.566;2024-03-23T12:00:43;9.20;75.50
63202;DHT22;49296;48.188;11.566;2024-03-23T12:03:16;8.99;74.76
63202;DHT22;49296;48.188;11.566;2024-03-23T12:05:47;9.07;76.04
63202;DHT22;49296;48.188;11.566;2024-03-23T12:08:22;9.19;74.87
63202;DHT22;49296;48.188;11.566;2024-03-23T12:10:50;9.26;73.98
63202;DHT22;49296;48.188;11.566;2024-03-23T12:13:18;9.14;69.93
63202;DHT22;49296;48.188;11.566;2024-03-23T12:15:49;9.10;69.25
63202;DHT22;49296;48.188;11.566;2024-03-23T12:18:15;9.10;69.50
63202;DHT22;49296;48.188;11.566;2024-03-23T12:20:42;9.16;70.15
63202;DHT22;49296;48.188;11.566;2024-03-23T12:23:09;9.38;69.43
63202;DHT22;49296;48.188;11.566;2024-03-23T12:25:37;9.23;68.25
63202;DHT22;49296;48.188;11.566;2024-03-23T12:28:03;9.11;68.32
63202;DHT22;49296;48.188;11.566;2024-03-23T12:30:32;9.13;68.54
63202;DHT22;49296;48.188;11.566;2024-03-23T12:32:59;9.21;68.24
63202;DHT22;49296;48.188;11.566;2024-03-23T12:35:26;9.30;68.94
63202;DHT22;49296;48.188;11.566;2024-03-23T12:37:52;9.23;66.99
63202;DHT22;49296;48.188;11.566;2024-03-23T12:40:19;9.10;67.75
63202;DHT22;49296;48.188;11.566;2024-03-23T12:42:45;9.03;67.06
63202;DHT22;49296;48.188;11.566;2024-03-23T12:45:12;8.93;66.61
63202;DHT22;49296;48.188;11.566;2024-03-23T12:47:38;9.00;67.91
63202;DHT22;49296;48.188;11.566;2024-03-23T12:50:07;9.04;66.91
63202;DHT22;49296;48.188;11.566;2024-03-23T12:52:33;9.14;67.71
63202;DHT22;49296;48.188;11.566;2024-03-23T12:55:00;9.19;67.50
63202;DHT22;49296;48.188;11.566;2024-03-23T12:57:26;9.30;67.43
63202;DHT22;49296;48.188;11.566;2024-03-23T12:59:53;9.30;68.10
63202;DHT22;49296;48.188;11.566;2024-03-23T13:02:19;9.17;67.94
63202;DHT22;49296;48.188;11.566;2024-03-23T13:04:49;9.28;68.71
63202;DHT22;49296;48.188;11.566;2024-03-23T13:07:17;9.38;67.64
63202;DHT22;49296;48.188;11.566;2024-03-23T13:09:44;9.38;67.69
63202;DHT22;49296;48.188;11.566;2024-03-23T13:12:11;9.27;67.65
63202;DHT22;49296;48.188;11.566;2024-03-23T13:14:39;9.35;68.27
63202;DHT22;49296;48.188;11.566;2024-03-23T13:17:07;9.54;68.57
63202;DHT22;49296;48.188;11.566;2024-03-23T13:19:33;9.54;68.36
63202;DHT22;49296;48.188;11.566;2024-03-23T13:22:00;9.54;69.18
63202;DHT22;49296;48.188;11.566;2024-03-23T13:24:28;9.47;67.95
63202;DHT22;49296;48.188;11.566;2024-03-23T13:26:56;9.55;67.35
63202;DHT22;49296;48.188;11.566;2024-03-23T13:29:22;9.41;66.49
63202;DHT22;49296;48.188;11.566;2024-03-23T13:31:51;9.42;65.26
63202;DHT22;49296;48.188;11.566;2024-03-23T13:34:17;9.35;66.06
63202;DHT22;49296;48.188;11.566;2024-03-23T13:36:46;9.30;66.40
63202;DHT22;49296;48.188;11.566;2024-03-23T13:39:12;9.19;65.91
63202;DHT22;49296;48.188;11.566;2024-03-23T13:41:43;9.03;66.92
63202;DHT22;49296;48.188;11.566;2024-03-23T13:44:10;9.14;66.83
63202;DHT22;49296;48.188;11.566;2024-03-23T13:46:37;8.83;69.42
63202;DHT22;49296;48.188;11.566;2024-03-23T13:49:03;8.64;71.27
63202;DHT22;49296;48.188;11.566;2024-03-23T13:51:30;8.36;73.44
63202;DHT22;49296;48.188;11.566;2024-03-23T13:53:57;8.30;75.74
63202;DHT22;49296;48.188;11.566;2024-03-23T13:56:26;7.60;78.59
63202;DHT22;49296;48.188;11.566;2024-03-23T13:58:55;7.19;81.10
63202;DHT22;49296;48.188;11.566;2024-03-23T14:01:22;7.15;82.53
63202;DHT22;49296;48.188;11.566;2024-03-23T14:03:48;7.16;82.70
63202;DHT22;49296;48.188;11.566;2024-03-23T14:06:15;7.12;83.19
63202;DHT22;49296;48.188;11.566;2024-03-23T14:08:41;6.99;83.48
63202;DHT22;49296;48.188;11.566;2024-03-23T14:11:09;7.05;83.91
63202;DHT22;49296;48.188;11.566;2024-03-23T14:13:35;7.02;82.47
63202;DHT22;49296;48.188;11.566;2024-03-23T14:16:04;7.31;83.34
63202;DHT22;49296;48.188;11.566;2024-03-23T14:18:30;7.30;82.33
63202;DHT22;49296;48.188;11.566;2024-03-23T14:20:57;7.48;82.65
63202;DHT22;49296;48.188;11.566;2024-03-23T14:23:24;7.60;81.72
63202;DHT22;49296;48.188;11.566;2024-03-23T14:25:54;7.65;80.56
63202;DHT22;49296;48.188;11.566;2024-03-23T14:28:20;7.57;81.32
63202;DHT22;49296;48.188;11.566;2024-03-23T14:30:48;7.68;81.47
63202;DHT22;49296;48.188;11.566;2024-03-23T14:33:15;7.67;81.08
63202;DHT22;49296;48.188;11.566;2024-03-23T14:35:43;7.72;80.77
63202;DHT22;49296;48.188;11.566;2024-03-23T14:38:09;7.61;77.09
63202;DHT22;49296;48.188;11.566;2024-03-23T14:40:36;7.47;76.99
63202;DHT22;49296;48.188;11.566;2024-03-23T14:43:02;7.72;75.00
63202;DHT22;49296;48.188;11.566;2024-03-23T14:45:29;7.57;73.83
63202;DHT22;49296;48.188;11.566;2024-03-23T14:47:55;7.55;71.80
63202;DHT22;49296;48.188;11.566;2024-03-23T14:50:25;7.36;70.92
63202;DHT22;49296;48.188;11.566;2024-03-23T14:52:50;7.38;71.20
63202;DHT22;49296;48.188;11.566;2024-03-23T14:55:17;7.40;69.76
63202;DHT22;49296;48.188;11.566;2024-03-23T14:57:43;7.36;70.77
63202;DHT22;49296;48.188;11.566;2024-03-23T15:00:11;7.51;69.41
63202;DHT22;49296;48.188;11.566;2024-03-23T15:02:37;7.47;68.91
63202;DHT22;49296;48.188;11.566;2024-03-23T15:05:05;7.42;68.61
63202;DHT22;49296;48.188;11.566;2024-03-23T15:07:36;7.40;67.84
63202;DHT22;49296;48.188;11.566;2024-03-23T15:10:04;7.46;69.21
63202;DHT22;49296;48.188;11.566;2024-03-23T15:12:31;7.55;68.90
63202;DHT22;49296;48.188;11.566;2024-03-23T15:14:59;7.48;69.58
63202;DHT22;49296;48.188;11.566;2024-03-23T15:17:25;7.43;69.44
63202;DHT22;49296;48.188;11.566;2024-03-23T15:19:52;7.58;69.50
63202;DHT22;49296;48.188;11.566;2024-03-23T15:22:19;7.57;70.27
63202;DHT22;49296;48.188;11.566;2024-03-23T15:24:48;7.42;70.69
63202;DHT22;49296;48.188;11.566;2024-03-23T15:27:14;7.19;72.09
63202;DHT22;49296;48.188;11.566;2024-03-23T15:29:40;7.23;72.89
63202;DHT22;49296;48.188;11.566;2024-03-23T15:32:11;7.31;72.97
63202;DHT22;49296;48.188;11.566;2024-03-23T15:34:39;7.48;73.25
63202;DHT22;49296;48.188;11.566;2024-03-23T15:37:05;7.51;73.55
63202;DHT22;49296;48.188;11.566;2024-03-23T15:39:32;7.67;73.75
63202;DHT22;49296;48.188;11.566;2024-03-23T15:41:59;7.67;73.17
63202;DHT22;49296;48.188;11.566;2024-03-23T15:44:26;7.88;73.41
63202;DHT22;49296;48.188;11.566;2024-03-23T15:46:52;7.82;74.00
63202;DHT22;49296;48.188;11.566;2024-03-23T15:49:19;7.97;74.18
63202;DHT22;49296;48.188;11.566;2024-03-23T15:51:45;8.16;73.93
63202;DHT22;49296;48.188;11.566;2024-03-23T15:54:12;8.45;72.82
63202;DHT22;49296;48.188;11.566;2024-03-23T15:56:38;8.73;72.14
63202;DHT22;49296;48.188;11.566;2024-03-23T15:59:06;8.76;72.19
63202;DHT22;49296;48.188;11.566;2024-03-23T16:01:32;8.71;72.65
63202;DHT22;49296;48.188;11.566;2024-03-23T16:04:00;8.50;73.39
63202;DHT22;49296;48.188;11.566;2024-03-23T16:06:26;8.50;73.92
63202;DHT22;49296;48.188;11.566;2024-03-23T16:08:53;8.37;74.33
63202;DHT22;49296;48.188;11.566;2024-03-23T16:11:19;8.12;74.62
63202;DHT22;49296;48.188;11.566;2024-03-23T16:13:46;8.16;75.00
63202;DHT22;49296;48.188;11.566;2024-03-23T16:16:14;8.07;75.48
63202;DHT22;49296;48.188;11.566;2024-03-23T16:18:41;8.10;74.99